sensor_id;sensor_type;location;lat;lon;timestamp;pressure;altitude;pressure_sealevel;temperature;humidity
9423;BME280;65863;49.506;10.400;2022-12-18T00:02:33;99256.50;;;-15.81;79.38
9423;BME280;65863;49.506;10.400;2022-12-18T00:05:16;99284.56;;;-15.50;79.62
9423;BME280;65863;49.506;10.400;2022-12-18T00:08:01;99295.66;;;-15.52;79.64
9423;BME280;65863;49.506;10.400;2022-12-18T00:10:45;99248.41;;;-15.65;80.18
9423;BME280;65863;49.506;10.400;2022-12-18T00:13:30;99227.91;;;-15.70;79.43
9423;BME280;65863;49.506;10.400;2022-12-18T00:16:16;99255.19;;;-15.55;80.04
9423;BME280;65863;49.506;10.400;2022-12-18T00:19:02;99221.19;;;-15.76;80.20
9423;BME280;65863;49.506;10.400;2022-12-18T00:21:47;99251.97;;;-15.61;79.60
9423;BME280;65863;49.506;10.400;2022-12-18T00:24:31;99284.91;;;-15.36;80.39
9423;BME280;65863;49.506;10.400;2022-12-18T00:27:15;99232.06;;;-15.72;80.10
9423;BME280;65863;49.506;10.400;2022-12-18T00:29:59;99228.16;;;-15.75;80.09
9423;BME280;65863;49.506;10.400;2022-12-18T00:32:43;99297.06;;;-15.26;79.92
9423;BME280;65863;49.506;10.400;2022-12-18T00:35:27;99292.53;;;-15.38;80.28
9423;BME280;65863;49.506;10.400;2022-12-18T00:38:11;99313.47;;;-15.31;79.91
9423;BME280;65863;49.506;10.400;2022-12-18T00:40:55;99260.47;;;-15.75;79.99
9423;BME280;65863;49.506;10.400;2022-12-18T00:43:39;99217.22;;;-16.14;80.04
9423;BME280;65863;49.506;10.400;2022-12-18T00:46:23;99289.13;;;-15.99;80.07
9423;BME280;65863;49.506;10.400;2022-12-18T00:49:08;99290.47;;;-16.05;79.77
9423;BME280;65863;49.506;10.400;2022-12-18T00:51:55;99297.72;;;-16.21;79.72
9423;BME280;65863;49.506;10.400;2022-12-18T00:54:39;99277.72;;;-16.36;80.32
9423;BME280;65863;49.506;10.400;2022-12-18T00:57:23;99312.09;;;-16.30;80.21
9423;BME280;65863;49.506;10.400;2022-12-18T01:00:09;99323.09;;;-16.35;80.32
9423;BME280;65863;49.506;10.400;2022-12-18T01:02:54;99277.91;;;-16.70;79.96
9423;BME280;65863;49.506;10.400;2022-12-18T01:05:42;99323.31;;;-16.40;80.32
9423;BME280;65863;49.506;10.400;2022-12-18T01:08:26;99263.72;;;-16.83;79.90
9423;BME280;65863;49.506;10.400;2022-12-18T01:11:13;99330.81;;;-16.33;79.45
9423;BME280;65863;49.506;10.400;2022-12-18T01:13:58;99318.97;;;-16.44;79.79
9423;BME280;65863;49.506;10.400;2022-12-18T01:16:43;99302.09;;;-16.70;79.38
9423;BME280;65863;49.506;10.400;2022-12-18T01:19:27;99324.91;;;-16.51;79.79
9423;BME280;65863;49.506;10.400;2022-12-18T01:22:12;99293.72;;;-16.81;79.67
9423;BME280;65863;49.506;10.400;2022-12-18T01:24:56;99313.53;;;-16.85;79.97
9423;BME280;65863;49.506;10.400;2022-12-18T01:27:40;99355.50;;;-16.68;79.90
9423;BME280;65863;49.506;10.400;2022-12-18T01:30:24;99367.28;;;-16.60;80.48
9423;BME280;65863;49.506;10.400;2022-12-18T01:33:10;99329.66;;;-16.85;79.74
9423;BME280;65863;49.506;10.400;2022-12-18T01:35:54;99297.09;;;-16.84;80.11
9423;BME280;65863;49.506;10.400;2022-12-18T01:38:38;99300.84;;;-16.60;80.28
9423;BME280;65863;49.506;10.400;2022-12-18T01:41:24;99336.94;;;-16.20;79.79
9423;BME280;65863;49.506;10.400;2022-12-18T01:47:35;99309.41;;;-16.30;79.44
9423;BME280;65863;49.506;10.400;2022-12-18T01:50:39;99319.72;;;-16.32;80.20
9423;BME280;65863;49.506;10.400;2022-12-18T01:53:23;99332.44;;;-16.16;79.59
9423;BME280;65863;49.506;10.400;2022-12-18T01:56:08;99350.59;;;-16.13;79.55
9423;BME280;65863;49.506;10.400;2022-12-18T01:58:58;99355.88;;;-16.17;80.48
9423;BME280;65863;49.506;10.400;2022-12-18T02:01:44;99315.78;;;-16.34;79.86
9423;BME280;65863;49.506;10.400;2022-12-18T02:04:29;99314.63;;;-16.49;79.70
9423;BME280;65863;49.506;10.400;2022-12-18T02:07:17;99366.09;;;-16.22;79.74
9423;BME280;65863;49.506;10.400;2022-12-18T02:10:10;99362.75;;;-16.32;79.65
9423;BME280;65863;49.506;10.400;2022-12-18T02:19:55;99355.84;;;-16.45;79.44
9423;BME280;65863;49.506;10.400;2022-12-18T02:23:17;99350.88;;;-16.43;79.63
9423;BME280;65863;49.506;10.400;2022-12-18T02:26:16;99349.44;;;-16.40;79.40
9423;BME280;65863;49.506;10.400;2022-12-18T02:29:08;99314.19;;;-16.64;79.99
9423;BME280;65863;49.506;10.400;2022-12-18T02:31:58;99353.56;;;-16.31;80.20
9423;BME280;65863;49.506;10.400;2022-12-18T02:34:44;99331.44;;;-16.65;79.79
9423;BME280;65863;49.506;10.400;2022-12-18T02:37:33;99348.53;;;-16.44;80.05
9423;BME280;65863;49.506;10.400;2022-12-18T02:40:21;99346.66;;;-16.56;79.59
9423;BME280;65863;49.506;10.400;2022-12-18T02:43:10;99339.28;;;-16.72;79.62
9423;BME280;65863;49.506;10.400;2022-12-18T02:45:58;99351.09;;;-16.36;79.29
9423;BME280;65863;49.506;10.400;2022-12-18T02:48:45;99329.84;;;-16.53;80.01
9423;BME280;65863;49.506;10.400;2022-12-18T02:51:51;99338.34;;;-16.39;79.54
9423;BME280;65863;49.506;10.400;2022-12-18T02:57:54;99304.00;;;-16.70;79.03
9423;BME280;65863;49.506;10.400;2022-12-18T03:00:49;99323.81;;;-16.63;79.55
9423;BME280;65863;49.506;10.400;2022-12-18T03:04:25;99331.44;;;-16.52;79.77
9423;BME280;65863;49.506;10.400;2022-12-18T03:07:13;99345.50;;;-16.43;79.08
9423;BME280;65863;49.506;10.400;2022-12-18T03:10:00;99303.44;;;-16.64;79.41
9423;BME280;65863;49.506;10.400;2022-12-18T03:12:51;99338.78;;;-16.37;79.60
9423;BME280;65863;49.506;10.400;2022-12-18T03:15:39;99357.38;;;-16.32;80.16
9423;BME280;65863;49.506;10.400;2022-12-18T03:18:54;99338.88;;;-16.33;79.21
9423;BME280;65863;49.506;10.400;2022-12-18T03:21:50;99370.09;;;-16.16;79.58
9423;BME280;65863;49.506;10.400;2022-12-18T03:24:36;99340.53;;;-16.29;80.00
9423;BME280;65863;49.506;10.400;2022-12-18T03:27:25;99322.53;;;-16.40;80.05
9423;BME280;65863;49.506;10.400;2022-12-18T03:30:15;99368.16;;;-16.03;79.72
9423;BME280;65863;49.506;10.400;2022-12-18T03:33:07;99364.25;;;-16.06;80.15
9423;BME280;65863;49.506;10.400;2022-12-18T03:35:54;99354.38;;;-16.02;79.90
9423;BME280;65863;49.506;10.400;2022-12-18T03:38:38;99354.81;;;-16.00;80.11
9423;BME280;65863;49.506;10.400;2022-12-18T03:45:09;99342.06;;;-16.03;80.19
9423;BME280;65863;49.506;10.400;2022-12-18T03:48:04;99367.00;;;-15.90;80.93
9423;BME280;65863;49.506;10.400;2022-12-18T03:51:10;99335.16;;;-16.29;80.71
9423;BME280;65863;49.506;10.400;2022-12-18T03:53:58;99387.75;;;-15.90;80.26
9423;BME280;65863;49.506;10.400;2022-12-18T03:56:53;99389.31;;;-15.89;80.97
9423;BME280;65863;49.506;10.400;2022-12-18T03:59:42;99347.19;;;-15.98;80.68
9423;BME280;65863;49.506;10.400;2022-12-18T04:02:30;99378.88;;;-15.47;80.87
9423;BME280;65863;49.506;10.400;2022-12-18T04:05:19;99331.69;;;-15.56;80.95
9423;BME280;65863;49.506;10.400;2022-12-18T04:08:04;99353.19;;;-15.44;80.73
9423;BME280;65863;49.506;10.400;2022-12-18T04:10:52;99335.72;;;-15.50;81.46
9423;BME280;65863;49.506;10.400;2022-12-18T04:13:37;99368.25;;;-15.11;81.41
9423;BME280;65863;49.506;10.400;2022-12-18T04:16:26;99363.19;;;-14.97;81.93
9423;BME280;65863;49.506;10.400;2022-12-18T04:19:13;99350.50;;;-14.80;81.95
9423;BME280;65863;49.506;10.400;2022-12-18T04:21:59;99351.38;;;-14.57;82.24
9423;BME280;65863;49.506;10.400;2022-12-18T04:24:45;99399.63;;;-14.00;82.49
9423;BME280;65863;49.506;10.400;2022-12-18T04:27:37;99305.69;;;-14.10;82.80
9423;BME280;65863;49.506;10.400;2022-12-18T04:30:22;99353.19;;;-13.47;82.78
9423;BME280;65863;49.506;10.400;2022-12-18T04:33:11;99352.09;;;-13.19;83.38
9423;BME280;65863;49.506;10.400;2022-12-18T04:35:56;99377.22;;;-12.45;83.65
9423;BME280;65863;49.506;10.400;2022-12-18T04:38:41;99352.75;;;-12.53;84.32
9423;BME280;65863;49.506;10.400;2022-12-18T04:41:29;99340.47;;;-12.47;84.13
9423;BME280;65863;49.506;10.400;2022-12-18T04:44:13;99333.19;;;-12.42;84.37
9423;BME280;65863;49.506;10.400;2022-12-18T04:46:57;99382.44;;;-12.03;84.52
9423;BME280;65863;49.506;10.400;2022-12-18T04:49:42;99349.06;;;-12.10;85.03
9423;BME280;65863;49.506;10.400;2022-12-18T04:52:26;99382.84;;;-11.67;85.07
9423;BME280;65863;49.506;10.400;2022-12-18T04:55:11;99383.53;;;-11.39;85.10
9423;BME280;65863;49.506;10.400;2022-12-18T04:57:55;99379.09;;;-11.17;85.69
9423;BME280;65863;49.506;10.400;2022-12-18T05:00:40;99380.72;;;-11.09;85.52
9423;BME280;65863;49.506;10.400;2022-12-18T05:03:24;99288.47;;;-11.57;85.92
9423;BME280;65863;49.506;10.400;2022-12-18T05:06:12;99385.16;;;-10.90;86.24
9423;BME280;65863;49.506;10.400;2022-12-18T05:08:56;99380.56;;;-10.82;86.84
9423;BME280;65863;49.506;10.400;2022-12-18T05:11:41;99372.06;;;-10.81;86.21
9423;BME280;65863;49.506;10.400;2022-12-18T05:14:25;99374.50;;;-10.65;87.02
9423;BME280;65863;49.506;10.400;2022-12-18T05:17:11;99358.69;;;-10.56;87.43
9423;BME280;65863;49.506;10.400;2022-12-18T05:19:56;99386.38;;;-10.28;86.75
9423;BME280;65863;49.506;10.400;2022-12-18T05:22:40;99396.13;;;-10.20;87.08
9423;BME280;65863;49.506;10.400;2022-12-18T05:25:25;99403.53;;;-10.10;87.64
9423;BME280;65863;49.506;10.400;2022-12-18T05:28:10;99360.34;;;-10.33;87.75
9423;BME280;65863;49.506;10.400;2022-12-18T05:30:56;99393.94;;;-9.96;88.45
9423;BME280;65863;49.506;10.400;2022-12-18T05:33:41;99389.66;;;-9.97;88.25
9423;BME280;65863;49.506;10.400;2022-12-18T05:36:26;99380.72;;;-9.94;87.95
9423;BME280;65863;49.506;10.400;2022-12-18T05:39:10;99365.56;;;-9.95;88.88
9423;BME280;65863;49.506;10.400;2022-12-18T05:41:54;99357.88;;;-9.86;88.70
9423;BME280;65863;49.506;10.400;2022-12-18T05:44:40;99347.75;;;-9.89;88.87
9423;BME280;65863;49.506;10.400;2022-12-18T05:47:26;99366.44;;;-9.77;89.45
9423;BME280;65863;49.506;10.400;2022-12-18T05:50:13;99378.44;;;-9.85;89.49
9423;BME280;65863;49.506;10.400;2022-12-18T05:52:59;99385.06;;;-9.75;89.52
9423;BME280;65863;49.506;10.400;2022-12-18T05:55:44;99391.72;;;-9.65;89.20
9423;BME280;65863;49.506;10.400;2022-12-18T05:58:29;99385.13;;;-9.64;89.49
9423;BME280;65863;49.506;10.400;2022-12-18T06:01:21;99394.47;;;-9.58;89.91
9423;BME280;65863;49.506;10.400;2022-12-18T06:04:05;99374.19;;;-9.79;89.47
9423;BME280;65863;49.506;10.400;2022-12-18T06:06:50;99400.69;;;-9.54;90.19
9423;BME280;65863;49.506;10.400;2022-12-18T06:09:34;99410.44;;;-9.49;90.29
9423;BME280;65863;49.506;10.400;2022-12-18T06:12:19;99409.28;;;-9.45;90.44
9423;BME280;65863;49.506;10.400;2022-12-18T06:15:03;99376.59;;;-9.63;90.06
9423;BME280;65863;49.506;10.400;2022-12-18T06:17:48;99382.06;;;-9.52;90.45
9423;BME280;65863;49.506;10.400;2022-12-18T06:20:33;99407.78;;;-9.24;90.81
9423;BME280;65863;49.506;10.400;2022-12-18T06:23:18;99421.41;;;-9.21;90.85
9423;BME280;65863;49.506;10.400;2022-12-18T06:26:07;99418.69;;;-9.13;90.49
9423;BME280;65863;49.506;10.400;2022-12-18T06:28:52;99389.91;;;-9.32;90.58
9423;BME280;65863;49.506;10.400;2022-12-18T06:31:36;99327.59;;;-9.77;90.63
9423;BME280;65863;49.506;10.400;2022-12-18T06:34:21;99423.34;;;-9.18;91.10
9423;BME280;65863;49.506;10.400;2022-12-18T06:37:06;99357.97;;;-9.50;91.11
9423;BME280;65863;49.506;10.400;2022-12-18T06:39:50;99407.81;;;-9.21;91.06
9423;BME280;65863;49.506;10.400;2022-12-18T06:42:34;99402.34;;;-9.17;91.24
9423;BME280;65863;49.506;10.400;2022-12-18T06:45:18;99417.94;;;-9.07;91.08
9423;BME280;65863;49.506;10.400;2022-12-18T06:48:02;99429.63;;;-8.92;91.06
9423;BME280;65863;49.506;10.400;2022-12-18T06:50:46;99417.94;;;-9.00;91.43
9423;BME280;65863;49.506;10.400;2022-12-18T06:53:32;99428.06;;;-8.89;91.56
9423;BME280;65863;49.506;10.400;2022-12-18T06:56:16;99439.75;;;-8.78;91.34
9423;BME280;65863;49.506;10.400;2022-12-18T06:59:00;99437.81;;;-8.81;91.46
9423;BME280;65863;49.506;10.400;2022-12-18T07:01:44;99421.09;;;-8.65;91.63
9423;BME280;65863;49.506;10.400;2022-12-18T07:04:29;99413.72;;;-8.64;91.58
9423;BME280;65863;49.506;10.400;2022-12-18T07:07:13;99374.41;;;-8.92;91.71
9423;BME280;65863;49.506;10.400;2022-12-18T07:10:19;99417.22;;;-8.57;91.54
9423;BME280;65863;49.506;10.400;2022-12-18T07:13:03;99377.91;;;-8.88;91.95
9423;BME280;65863;49.506;10.400;2022-12-18T07:15:47;99385.31;;;-8.85;91.67
9423;BME280;65863;49.506;10.400;2022-12-18T07:18:31;99409.03;;;-8.71;91.99
9423;BME280;65863;49.506;10.400;2022-12-18T07:21:17;99430.41;;;-8.37;91.90
9423;BME280;65863;49.506;10.400;2022-12-18T07:24:01;99402.03;;;-8.65;91.51
9423;BME280;65863;49.506;10.400;2022-12-18T07:26:46;99439.75;;;-8.38;91.88
9423;BME280;65863;49.506;10.400;2022-12-18T07:29:30;99444.03;;;-8.41;91.81
9423;BME280;65863;49.506;10.400;2022-12-18T07:32:14;99405.91;;;-8.48;92.17
9423;BME280;65863;49.506;10.400;2022-12-18T07:34:58;99430.41;;;-8.23;92.16
9423;BME280;65863;49.506;10.400;2022-12-18T07:37:48;99446.31;;;-7.96;92.07
9423;BME280;65863;49.506;10.400;2022-12-18T07:40:32;99453.34;;;-8.17;92.18
9423;BME280;65863;49.506;10.400;2022-12-18T07:43:16;99452.56;;;-7.99;91.76
9423;BME280;65863;49.506;10.400;2022-12-18T07:46:02;99415.59;;;-8.18;92.25
9423;BME280;65863;49.506;10.400;2022-12-18T07:48:46;99465.03;;;-8.02;91.85
9423;BME280;65863;49.506;10.400;2022-12-18T07:51:31;99437.38;;;-8.11;92.10
9423;BME280;65863;49.506;10.400;2022-12-18T07:54:15;99439.72;;;-8.06;92.06
9423;BME280;65863;49.506;10.400;2022-12-18T07:56:59;99484.06;;;-7.80;92.30
9423;BME280;65863;49.506;10.400;2022-12-18T07:59:43;99478.97;;;-7.67;92.37
9423;BME280;65863;49.506;10.400;2022-12-18T08:02:30;99461.88;;;-7.75;92.37
9423;BME280;65863;49.506;10.400;2022-12-18T08:05:14;99454.47;;;-7.78;92.39
9423;BME280;65863;49.506;10.400;2022-12-18T08:07:58;99453.25;;;-7.70;92.25
9423;BME280;65863;49.506;10.400;2022-12-18T08:10:42;99454.38;;;-7.53;92.29
9423;BME280;65863;49.506;10.400;2022-12-18T08:13:27;99471.16;;;-7.54;91.97
9423;BME280;65863;49.506;10.400;2022-12-18T08:16:11;99443.06;;;-7.44;92.18
9423;BME280;65863;49.506;10.400;2022-12-18T08:18:56;99421.28;;;-7.58;92.36
9423;BME280;65863;49.506;10.400;2022-12-18T08:21:41;99454.31;;;-7.31;91.92
9423;BME280;65863;49.506;10.400;2022-12-18T08:24:25;99429.03;;;-7.42;91.98
9423;BME280;65863;49.506;10.400;2022-12-18T08:27:09;99458.06;;;-7.03;91.92
9423;BME280;65863;49.506;10.400;2022-12-18T08:29:53;99414.94;;;-7.34;91.58
9423;BME280;65863;49.506;10.400;2022-12-18T08:32:37;99406.00;;;-7.41;91.65
9423;BME280;65863;49.506;10.400;2022-12-18T08:35:21;99427.31;;;-7.15;91.96
9423;BME280;65863;49.506;10.400;2022-12-18T08:38:05;99396.13;;;-7.17;91.63
9423;BME280;65863;49.506;10.400;2022-12-18T08:40:53;99414.28;;;-6.85;91.60
9423;BME280;65863;49.506;10.400;2022-12-18T08:43:38;99420.19;;;-6.98;91.61
9423;BME280;65863;49.506;10.400;2022-12-18T08:46:42;99452.88;;;-6.83;91.30
9423;BME280;65863;49.506;10.400;2022-12-18T08:49:26;99440.03;;;-6.86;91.38
9423;BME280;65863;49.506;10.400;2022-12-18T08:52:10;99432.56;;;-6.79;91.25
9423;BME280;65863;49.506;10.400;2022-12-18T08:54:54;99431.66;;;-6.61;91.31
9423;BME280;65863;49.506;10.400;2022-12-18T08:57:39;99420.81;;;-6.72;91.28
9423;BME280;65863;49.506;10.400;2022-12-18T09:00:23;99434.44;;;-6.68;91.04
9423;BME280;65863;49.506;10.400;2022-12-18T09:03:15;99432.06;;;-6.59;90.66
9423;BME280;65863;49.506;10.400;2022-12-18T09:06:00;99375.28;;;-6.86;90.64
9423;BME280;65863;49.506;10.400;2022-12-18T09:08:44;99440.06;;;-6.37;90.60
9423;BME280;65863;49.506;10.400;2022-12-18T09:11:30;99451.31;;;-6.28;90.47
9423;BME280;65863;49.506;10.400;2022-12-18T09:14:14;99408.44;;;-6.35;90.34
9423;BME280;65863;49.506;10.400;2022-12-18T09:16:58;99391.50;;;-6.64;90.13
9423;BME280;65863;49.506;10.400;2022-12-18T09:19:42;99445.22;;;-6.01;90.07
9423;BME280;65863;49.506;10.400;2022-12-18T09:22:26;99422.56;;;-6.02;90.22
9423;BME280;65863;49.506;10.400;2022-12-18T09:25:10;99405.63;;;-5.90;90.26
9423;BME280;65863;49.506;10.400;2022-12-18T09:27:54;99414.16;;;-5.84;89.85
9423;BME280;65863;49.506;10.400;2022-12-18T09:30:43;99416.28;;;-5.99;89.83
9423;BME280;65863;49.506;10.400;2022-12-18T09:33:27;99427.75;;;-5.77;89.66
9423;BME280;65863;49.506;10.400;2022-12-18T09:36:14;99439.81;;;-5.71;89.47
9423;BME280;65863;49.506;10.400;2022-12-18T09:38:59;99462.09;;;-5.72;89.09
9423;BME280;65863;49.506;10.400;2022-12-18T09:41:54;99457.06;;;-5.77;88.75
9423;BME280;65863;49.506;10.400;2022-12-18T09:44:42;99411.59;;;-5.64;88.50
9423;BME280;65863;49.506;10.400;2022-12-18T09:47:39;99434.53;;;-5.54;88.77
9423;BME280;65863;49.506;10.400;2022-12-18T09:50:32;99436.31;;;-5.40;88.19
9423;BME280;65863;49.506;10.400;2022-12-18T09:53:20;99402.47;;;-5.54;88.04
9423;BME280;65863;49.506;10.400;2022-12-18T09:56:12;99416.28;;;-5.03;88.00
9423;BME280;65863;49.506;10.400;2022-12-18T09:59:01;99369.72;;;-5.30;88.01
9423;BME280;65863;49.506;10.400;2022-12-18T10:01:45;99379.00;;;-5.24;87.42
9423;BME280;65863;49.506;10.400;2022-12-18T10:04:31;99360.50;;;-5.43;87.47
9423;BME280;65863;49.506;10.400;2022-12-18T10:07:29;99387.22;;;-5.24;87.24
9423;BME280;65863;49.506;10.400;2022-12-18T10:13:18;99391.09;;;-4.94;86.58
9423;BME280;65863;49.506;10.400;2022-12-18T10:16:25;99376.06;;;-4.82;86.32
9423;BME280;65863;49.506;10.400;2022-12-18T10:25:26;99410.72;;;-4.44;85.70
9423;BME280;65863;49.506;10.400;2022-12-18T10:28:26;99411.19;;;-4.02;85.92
9423;BME280;65863;49.506;10.400;2022-12-18T10:31:16;99386.88;;;-4.24;85.19
9423;BME280;65863;49.506;10.400;2022-12-18T10:34:00;99414.78;;;-3.65;85.22
9423;BME280;65863;49.506;10.400;2022-12-18T10:36:44;99417.91;;;-3.43;84.78
9423;BME280;65863;49.506;10.400;2022-12-18T10:39:28;99405.00;;;-3.46;84.24
9423;BME280;65863;49.506;10.400;2022-12-18T10:42:18;99395.53;;;-2.88;83.71
9423;BME280;65863;49.506;10.400;2022-12-18T10:45:12;99384.75;;;-3.16;83.37
9423;BME280;65863;49.506;10.400;2022-12-18T10:47:57;99398.06;;;-3.14;82.37
9423;BME280;65863;49.506;10.400;2022-12-18T10:50:46;99397.78;;;-4.20;80.71
9423;BME280;65863;49.506;10.400;2022-12-18T10:53:42;99392.22;;;-4.17;80.56
9423;BME280;65863;49.506;10.400;2022-12-18T10:56:35;99394.03;;;-3.86;80.42
9423;BME280;65863;49.506;10.400;2022-12-18T10:59:20;99358.75;;;-4.52;80.41
9423;BME280;65863;49.506;10.400;2022-12-18T11:02:34;99398.16;;;-4.18;80.76
9423;BME280;65863;49.506;10.400;2022-12-18T11:05:27;99402.63;;;-4.28;80.99
9423;BME280;65863;49.506;10.400;2022-12-18T11:08:20;99400.38;;;-3.69;81.31
9423;BME280;65863;49.506;10.400;2022-12-18T11:11:20;99379.13;;;-3.85;81.20
9423;BME280;65863;49.506;10.400;2022-12-18T11:14:11;99360.47;;;-3.74;81.18
9423;BME280;65863;49.506;10.400;2022-12-18T11:16:58;99359.09;;;-4.06;80.66
9423;BME280;65863;49.506;10.400;2022-12-18T11:19:42;99346.25;;;-3.89;80.79
9423;BME280;65863;49.506;10.400;2022-12-18T11:22:32;99393.94;;;-3.42;80.76
9423;BME280;65863;49.506;10.400;2022-12-18T11:25:18;99363.78;;;-3.83;80.27
9423;BME280;65863;49.506;10.400;2022-12-18T11:31:24;99352.66;;;-3.95;80.62
9423;BME280;65863;49.506;10.400;2022-12-18T11:34:13;99376.00;;;-3.47;80.50
9423;BME280;65863;49.506;10.400;2022-12-18T11:37:02;99353.91;;;-3.80;80.41
9423;BME280;65863;49.506;10.400;2022-12-18T11:40:01;99339.69;;;-4.15;79.82
9423;BME280;65863;49.506;10.400;2022-12-18T11:42:54;99335.22;;;-4.05;80.20
9423;BME280;65863;49.506;10.400;2022-12-18T11:46:10;99344.97;;;-4.04;80.31
9423;BME280;65863;49.506;10.400;2022-12-18T11:55:37;99334.97;;;-3.74;80.95
9423;BME280;65863;49.506;10.400;2022-12-18T12:16:45;99352.09;;;-3.87;80.68
9423;BME280;65863;49.506;10.400;2022-12-18T12:20:42;99347.28;;;-4.03;80.62
9423;BME280;65863;49.506;10.400;2022-12-18T12:23:00;99340.41;;;-4.11;80.92
9423;BME280;65863;49.506;10.400;2022-12-18T12:25:55;99323.59;;;-3.93;81.37
9423;BME280;65863;49.506;10.400;2022-12-18T12:28:56;99312.81;;;-3.64;81.43
9423;BME280;65863;49.506;10.400;2022-12-18T12:32:04;99339.53;;;-3.48;81.45
9423;BME280;65863;49.506;10.400;2022-12-18T12:40:51;99310.91;;;-3.67;80.61
9423;BME280;65863;49.506;10.400;2022-12-18T12:43:47;99315.16;;;-3.46;80.93
9423;BME280;65863;49.506;10.400;2022-12-18T12:46:37;99305.47;;;-3.34;80.86
9423;BME280;65863;49.506;10.400;2022-12-18T12:49:26;99291.97;;;-3.44;81.04
9423;BME280;65863;49.506;10.400;2022-12-18T12:52:15;99273.28;;;-3.86;80.42
9423;BME280;65863;49.506;10.400;2022-12-18T12:55:04;99298.22;;;-3.60;80.45
9423;BME280;65863;49.506;10.400;2022-12-18T13:01:06;99304.13;;;-3.62;81.38
9423;BME280;65863;49.506;10.400;2022-12-18T13:03:58;99309.19;;;-3.60;81.29
9423;BME280;65863;49.506;10.400;2022-12-18T13:07:01;99269.34;;;-3.85;81.35
9423;BME280;65863;49.506;10.400;2022-12-18T13:13:10;99285.41;;;-3.67;81.27
9423;BME280;65863;49.506;10.400;2022-12-18T13:16:06;99302.31;;;-3.49;81.43
9423;BME280;65863;49.506;10.400;2022-12-18T13:18:53;99255.75;;;-3.72;81.22
9423;BME280;65863;49.506;10.400;2022-12-18T13:21:38;99278.78;;;-3.50;81.44
9423;BME280;65863;49.506;10.400;2022-12-18T13:24:27;99300.09;;;-3.57;81.08
9423;BME280;65863;49.506;10.400;2022-12-18T13:44:51;99266.28;;;-3.71;81.49
9423;BME280;65863;49.506;10.400;2022-12-18T13:47:37;99295.19;;;-3.66;81.51
9423;BME280;65863;49.506;10.400;2022-12-18T13:50:24;99245.06;;;-3.87;81.74
9423;BME280;65863;49.506;10.400;2022-12-18T13:53:20;99283.75;;;-3.81;81.67
9423;BME280;65863;49.506;10.400;2022-12-18T13:56:05;99249.78;;;-4.07;81.88
9423;BME280;65863;49.506;10.400;2022-12-18T13:59:13;99269.50;;;-3.92;82.23
9423;BME280;65863;49.506;10.400;2022-12-18T14:02:26;99277.59;;;-3.69;82.22
9423;BME280;65863;49.506;10.400;2022-12-18T14:05:24;99275.81;;;-3.75;82.65
9423;BME280;65863;49.506;10.400;2022-12-18T14:08:15;99236.47;;;-3.89;82.53
9423;BME280;65863;49.506;10.400;2022-12-18T14:11:01;99282.34;;;-3.69;82.36
9423;BME280;65863;49.506;10.400;2022-12-18T14:13:45;99250.06;;;-4.02;81.92
9423;BME280;65863;49.506;10.400;2022-12-18T14:16:30;99233.28;;;-4.24;82.46
9423;BME280;65863;49.506;10.400;2022-12-18T14:19:15;99267.56;;;-3.75;82.67
9423;BME280;65863;49.506;10.400;2022-12-18T14:22:01;99264.47;;;-3.77;82.75
9423;BME280;65863;49.506;10.400;2022-12-18T14:24:45;99271.03;;;-3.91;82.75
9423;BME280;65863;49.506;10.400;2022-12-18T14:27:29;99231.28;;;-4.03;82.74
9423;BME280;65863;49.506;10.400;2022-12-18T14:33:17;99273.44;;;-3.93;82.82
9423;BME280;65863;49.506;10.400;2022-12-18T14:36:05;99278.56;;;-4.16;83.07
9423;BME280;65863;49.506;10.400;2022-12-18T14:38:54;99277.84;;;-4.20;83.31
9423;BME280;65863;49.506;10.400;2022-12-18T14:41:38;99274.91;;;-4.29;83.19
9423;BME280;65863;49.506;10.400;2022-12-18T14:44:22;99266.41;;;-4.35;83.48
9423;BME280;65863;49.506;10.400;2022-12-18T14:47:13;99272.88;;;-4.45;83.30
9423;BME280;65863;49.506;10.400;2022-12-18T14:49:58;99279.53;;;-4.46;83.50
9423;BME280;65863;49.506;10.400;2022-12-18T14:52:42;99252.09;;;-4.66;83.96
9423;BME280;65863;49.506;10.400;2022-12-18T14:55:26;99288.34;;;-4.35;84.32
9423;BME280;65863;49.506;10.400;2022-12-18T14:58:14;99252.69;;;-4.78;84.10
9423;BME280;65863;49.506;10.400;2022-12-18T15:00:59;99280.69;;;-4.67;84.36
9423;BME280;65863;49.506;10.400;2022-12-18T15:03:43;99294.97;;;-4.56;84.51
9423;BME280;65863;49.506;10.400;2022-12-18T15:06:31;99284.50;;;-4.61;84.84
9423;BME280;65863;49.506;10.400;2022-12-18T15:09:22;99306.59;;;-4.48;84.51
9423;BME280;65863;49.506;10.400;2022-12-18T15:12:26;99278.78;;;-4.70;84.55
9423;BME280;65863;49.506;10.400;2022-12-18T15:18:27;99313.91;;;-4.65;85.13
9423;BME280;65863;49.506;10.400;2022-12-18T15:21:18;99309.22;;;-4.64;84.95
9423;BME280;65863;49.506;10.400;2022-12-18T15:24:03;99289.88;;;-4.77;85.12
9423;BME280;65863;49.506;10.400;2022-12-18T15:26:47;99297.50;;;-4.89;85.03
9423;BME280;65863;49.506;10.400;2022-12-18T15:29:32;99311.97;;;-4.88;85.09
9423;BME280;65863;49.506;10.400;2022-12-18T15:32:19;99300.16;;;-4.85;85.23
9423;BME280;65863;49.506;10.400;2022-12-18T15:35:24;99270.69;;;-5.01;85.63
9423;BME280;65863;49.506;10.400;2022-12-18T15:38:08;99242.56;;;-5.29;85.18
9423;BME280;65863;49.506;10.400;2022-12-18T15:40:53;99315.16;;;-4.93;85.47
9423;BME280;65863;49.506;10.400;2022-12-18T15:43:37;99267.59;;;-5.27;85.52
9423;BME280;65863;49.506;10.400;2022-12-18T15:46:23;99290.63;;;-5.01;85.90
9423;BME280;65863;49.506;10.400;2022-12-18T15:49:08;99293.25;;;-4.93;86.13
9423;BME280;65863;49.506;10.400;2022-12-18T15:51:54;99304.88;;;-4.86;85.99
9423;BME280;65863;49.506;10.400;2022-12-18T15:54:40;99305.72;;;-4.89;85.75
9423;BME280;65863;49.506;10.400;2022-12-18T15:57:47;99297.97;;;-4.94;85.87
9423;BME280;65863;49.506;10.400;2022-12-18T16:00:38;99323.81;;;-4.71;85.90
9423;BME280;65863;49.506;10.400;2022-12-18T16:03:23;99285.56;;;-5.02;86.11
9423;BME280;65863;49.506;10.400;2022-12-18T16:06:08;99310.00;;;-4.88;86.04
9423;BME280;65863;49.506;10.400;2022-12-18T16:08:53;99310.84;;;-4.91;86.12
9423;BME280;65863;49.506;10.400;2022-12-18T16:11:39;99312.72;;;-4.88;85.80
9423;BME280;65863;49.506;10.400;2022-12-18T16:14:29;99309.53;;;-4.82;86.02
9423;BME280;65863;49.506;10.400;2022-12-18T16:17:14;99282.13;;;-5.06;85.97
9423;BME280;65863;49.506;10.400;2022-12-18T16:19:58;99248.34;;;-5.23;85.88